JST458 YMML-YSSY
Flight info
| Callsign | JST458 |
|---|---|
| Flight time | N/A |
| Altitude | 33000 |
| Route | DCT ML H129 DOSEL Y59 RIVET RIVET4 |
| Aircraft | A320/M-VGDW/C |
Departure
| Time | 2026-04-30 08:46 |
|---|---|
| Airport | Melbourne Airport (YMML) |
Arrival
| Time | N/A |
|---|---|
| Airport | Sydney Kingsford Smith International Airport (YSSY) |
| Time | Latitude | Longitude | Altitude | Speed | Heading |
|---|---|---|---|---|---|
| 2026-04-30 08:27 | -37.67072 | 144.84523 | 395 ft | 0 kts | 183° |
| 2026-04-30 08:38 | -37.67071 | 144.84523 | 395 ft | 2 kts | 183° |
| 2026-04-30 08:38 | -37.67054 | 144.84525 | 390 ft | 2 kts | 183° |
| 2026-04-30 08:38 | -37.67037 | 144.84525 | 397 ft | 3 kts | 185° |
| 2026-04-30 08:39 | -37.67020 | 144.84532 | 397 ft | 3 kts | 223° |
| 2026-04-30 08:39 | -37.67011 | 144.84546 | 394 ft | 0 kts | 250° |
| 2026-04-30 08:40 | -37.67011 | 144.84545 | 394 ft | 1 kts | 250° |
| 2026-04-30 08:40 | -37.67012 | 144.84541 | 393 ft | 1 kts | 251° |
| 2026-04-30 08:40 | -37.67017 | 144.84509 | 394 ft | 8 kts | 266° |
| 2026-04-30 08:41 | -37.67036 | 144.84432 | 389 ft | 7 kts | 244° |
| 2026-04-30 08:41 | -37.67052 | 144.84356 | 393 ft | 11 kts | 263° |
| 2026-04-30 08:41 | -37.67088 | 144.84262 | 390 ft | 14 kts | 210° |
| 2026-04-30 08:41 | -37.67194 | 144.84268 | 386 ft | 15 kts | 171° |
| 2026-04-30 08:42 | -37.67316 | 144.84289 | 382 ft | 20 kts | 171° |
| 2026-04-30 08:42 | -37.67451 | 144.84316 | 378 ft | 17 kts | 174° |
| 2026-04-30 08:42 | -37.67584 | 144.84340 | 373 ft | 21 kts | 175° |
| 2026-04-30 08:42 | -37.67692 | 144.84360 | 370 ft | 12 kts | 172° |
| 2026-04-30 08:43 | -37.67762 | 144.84375 | 367 ft | 6 kts | 171° |
| 2026-04-30 08:43 | -37.67766 | 144.84376 | 370 ft | 0 kts | 171° |
| 2026-04-30 08:43 | -37.67771 | 144.84377 | 371 ft | 7 kts | 171° |
| 2026-04-30 08:44 | -37.67841 | 144.84369 | 365 ft | 7 kts | 219° |
| 2026-04-30 08:44 | -37.67852 | 144.84311 | 364 ft | 8 kts | 258° |
| 2026-04-30 08:44 | -37.67865 | 144.84225 | 363 ft | 11 kts | 264° |
| 2026-04-30 08:44 | -37.67872 | 144.84113 | 366 ft | 14 kts | 266° |
| 2026-04-30 08:45 | -37.67848 | 144.83992 | 365 ft | 15 kts | 307° |
| 2026-04-30 08:45 | -37.67718 | 144.83937 | 370 ft | 47 kts | 352° |
| 2026-04-30 08:45 | -37.67097 | 144.83818 | 396 ft | 126 kts | 348° |
| 2026-04-30 08:45 | -37.66174 | 144.83613 | 852 ft | 144 kts | 346° |
| 2026-04-30 08:46 | -37.65148 | 144.83411 | 1563 ft | 153 kts | 347° |
| 2026-04-30 08:46 | -37.64032 | 144.83199 | 2168 ft | 174 kts | 347° |
| 2026-04-30 08:46 | -37.62757 | 144.82951 | 2764 ft | 197 kts | 348° |
| 2026-04-30 08:46 | -37.61315 | 144.82674 | 3423 ft | 222 kts | 348° |
| 2026-04-30 08:47 | -37.59696 | 144.82408 | 4128 ft | 249 kts | 356° |
| 2026-04-30 08:47 | -37.57926 | 144.82942 | 4896 ft | 277 kts | 24° |
| 2026-04-30 08:47 | -37.56177 | 144.84046 | 6033 ft | 284 kts | 25° |
| 2026-04-30 08:47 | -37.54388 | 144.85158 | 7215 ft | 290 kts | 24° |
| 2026-04-30 08:48 | -37.52553 | 144.86283 | 8360 ft | 296 kts | 24° |
| 2026-04-30 08:48 | -37.50685 | 144.87417 | 9474 ft | 301 kts | 24° |
| 2026-04-30 08:48 | -37.48772 | 144.88575 | 10381 ft | 315 kts | 24° |
| 2026-04-30 08:48 | -37.46718 | 144.89823 | 10877 ft | 340 kts | 25° |
| 2026-04-30 08:49 | -37.44641 | 144.91452 | 11278 ft | 365 kts | 36° |
| 2026-04-30 08:49 | -37.42690 | 144.93655 | 11655 ft | 388 kts | 47° |
| 2026-04-30 08:49 | -37.41029 | 144.96334 | 12344 ft | 398 kts | 55° |
| 2026-04-30 08:49 | -37.39402 | 144.99246 | 13162 ft | 403 kts | 54° |
| 2026-04-30 08:50 | -37.37774 | 145.02137 | 13953 ft | 408 kts | 54° |
| 2026-04-30 08:50 | -37.36123 | 145.05054 | 14725 ft | 412 kts | 54° |
| 2026-04-30 08:50 | -37.34446 | 145.08008 | 15456 ft | 417 kts | 54° |
| 2026-04-30 08:50 | -37.32751 | 145.10992 | 16172 ft | 421 kts | 54° |
| 2026-04-30 08:51 | -37.31062 | 145.13969 | 16905 ft | 426 kts | 54° |
| 2026-04-30 08:51 | -37.29333 | 145.17013 | 17611 ft | 431 kts | 54° |
| 2026-04-30 08:51 | -37.27588 | 145.20081 | 18306 ft | 434 kts | 54° |
| 2026-04-30 08:51 | -37.25822 | 145.23183 | 19004 ft | 438 kts | 54° |
| 2026-04-30 08:52 | -37.24043 | 145.26308 | 19665 ft | 442 kts | 54° |
| 2026-04-30 08:52 | -37.22248 | 145.29461 | 20301 ft | 446 kts | 54° |
| 2026-04-30 08:52 | -37.20438 | 145.32642 | 20900 ft | 450 kts | 54° |
| 2026-04-30 08:52 | -37.18609 | 145.35843 | 21434 ft | 453 kts | 54° |
| 2026-04-30 08:53 | -37.16768 | 145.39065 | 21987 ft | 454 kts | 54° |
| 2026-04-30 08:53 | -37.14942 | 145.42262 | 22612 ft | 449 kts | 51° |
| 2026-04-30 08:53 | -37.13109 | 145.45469 | 23184 ft | 458 kts | 54° |
| 2026-04-30 08:53 | -37.11251 | 145.48717 | 23548 ft | 460 kts | 53° |
| 2026-04-30 08:54 | -37.09391 | 145.51962 | 24187 ft | 457 kts | 54° |
| 2026-04-30 08:54 | -37.07532 | 145.55201 | 24702 ft | 459 kts | 54° |
| 2026-04-30 08:54 | -37.05664 | 145.58454 | 25150 ft | 461 kts | 54° |
| 2026-04-30 08:54 | -37.03784 | 145.61719 | 25605 ft | 463 kts | 54° |
| 2026-04-30 08:55 | -37.01896 | 145.64984 | 26022 ft | 466 kts | 54° |
| 2026-04-30 08:55 | -36.99989 | 145.68279 | 26408 ft | 469 kts | 54° |
| 2026-04-30 08:55 | -36.98071 | 145.71594 | 26780 ft | 471 kts | 54° |
| 2026-04-30 08:55 | -36.96151 | 145.74920 | 27135 ft | 474 kts | 54° |
| 2026-04-30 08:56 | -36.94214 | 145.78277 | 27446 ft | 476 kts | 54° |
| 2026-04-30 08:56 | -36.92271 | 145.81635 | 27734 ft | 479 kts | 54° |
| 2026-04-30 08:56 | -36.90306 | 145.85021 | 27975 ft | 481 kts | 54° |
| 2026-04-30 08:56 | -36.88337 | 145.88409 | 28211 ft | 483 kts | 54° |
| 2026-04-30 08:57 | -36.86368 | 145.91800 | 28497 ft | 484 kts | 54° |
| 2026-04-30 08:57 | -36.84396 | 145.95200 | 28882 ft | 482 kts | 54° |
| 2026-04-30 08:57 | -36.82427 | 145.98587 | 29248 ft | 481 kts | 54° |
| 2026-04-30 08:57 | -36.80461 | 146.01960 | 29636 ft | 480 kts | 54° |
| 2026-04-30 08:58 | -36.78523 | 146.05278 | 30049 ft | 478 kts | 54° |
| 2026-04-30 08:58 | -36.76541 | 146.08671 | 30452 ft | 477 kts | 54° |
| 2026-04-30 08:58 | -36.74589 | 146.12013 | 30854 ft | 476 kts | 54° |
| 2026-04-30 08:58 | -36.72642 | 146.15345 | 31251 ft | 475 kts | 54° |
| 2026-04-30 08:59 | -36.70694 | 146.18673 | 31635 ft | 475 kts | 54° |
| 2026-04-30 08:59 | -36.68743 | 146.22000 | 32022 ft | 474 kts | 54° |
| 2026-04-30 08:59 | -36.66823 | 146.25269 | 32410 ft | 473 kts | 54° |
| 2026-04-30 08:59 | -36.64879 | 146.28568 | 32827 ft | 472 kts | 54° |
| 2026-04-30 09:00 | -36.62937 | 146.31864 | 33167 ft | 472 kts | 54° |
| 2026-04-30 09:00 | -36.59026 | 146.38522 | 33263 ft | 480 kts | 54° |
| 2026-04-30 09:01 | -36.55076 | 146.45231 | 33262 ft | 481 kts | 54° |
| 2026-04-30 09:01 | -36.51112 | 146.51932 | 33259 ft | 482 kts | 54° |
| 2026-04-30 09:02 | -36.45138 | 146.61997 | 33264 ft | 482 kts | 54° |
| 2026-04-30 09:02 | -36.41168 | 146.68700 | 33251 ft | 482 kts | 54° |
| 2026-04-30 09:03 | -36.37187 | 146.75406 | 33245 ft | 483 kts | 54° |
| 2026-04-30 09:03 | -36.33192 | 146.82100 | 33245 ft | 483 kts | 54° |
| 2026-04-30 09:04 | -36.29865 | 146.87666 | 33256 ft | 483 kts | 54° |
| 2026-04-30 09:04 | -36.25867 | 146.94347 | 33261 ft | 483 kts | 54° |